createdAt,value
2017-09-21T00:01:00.408Z,18.80
2017-09-21T00:03:27.895Z,25.77
2017-09-21T00:05:55.383Z,19.77
2017-09-21T00:08:22.874Z,19.20
2017-09-21T00:10:50.343Z,26.90
2017-09-21T00:13:17.810Z,24.33
2017-09-21T00:15:45.290Z,16.80
2017-09-21T00:18:13.537Z,19.00
2017-09-21T00:20:41.023Z,20.57
2017-09-21T00:23:09.258Z,19.97
2017-09-21T00:25:36.722Z,20.17
2017-09-21T00:28:04.199Z,18.77
2017-09-21T00:30:31.660Z,22.40
2017-09-21T00:32:59.142Z,19.13
2017-09-21T00:35:27.383Z,22.10
2017-09-21T00:37:54.867Z,26.63
2017-09-21T00:40:23.083Z,20.20
2017-09-21T00:42:50.557Z,18.47
2017-09-21T00:45:18.010Z,18.87
2017-09-21T00:47:45.491Z,23.33
2017-09-21T00:50:12.951Z,21.53
2017-09-21T00:52:40.416Z,19.90
2017-09-21T00:55:08.659Z,20.93
2017-09-21T00:57:36.147Z,22.30
2017-09-21T01:00:04.375Z,25.83
2017-09-21T01:02:31.858Z,21.70
2017-09-21T01:04:59.391Z,21.67
2017-09-21T01:07:26.847Z,21.23
2017-09-21T01:09:54.307Z,24.20
2017-09-21T01:12:21.787Z,18.33
2017-09-21T01:14:49.255Z,22.70
2017-09-21T01:17:16.734Z,17.50
2017-09-21T01:19:44.212Z,21.07
2017-09-21T01:22:11.687Z,22.20
2017-09-21T01:27:13.883Z,16.30
2017-09-21T01:29:41.350Z,17.70
2017-09-21T01:32:08.826Z,17.07
2017-09-21T01:34:37.068Z,18.73
2017-09-21T01:37:04.526Z,24.07
2017-09-21T01:39:31.996Z,18.10
2017-09-21T01:41:59.493Z,18.63
2017-09-21T01:44:26.951Z,20.03
2017-09-21T01:46:54.522Z,17.10
2017-09-21T01:49:21.977Z,16.57
2017-09-21T01:51:49.459Z,20.70
2017-09-21T01:54:16.927Z,20.73
2017-09-21T01:56:44.407Z,17.57
2017-09-21T01:59:12.652Z,18.93
2017-09-21T02:01:40.111Z,18.30
2017-09-21T02:04:07.591Z,24.47
2017-09-21T02:06:35.843Z,17.80
2017-09-21T02:09:03.327Z,19.53
2017-09-21T02:11:31.552Z,20.23
2017-09-21T02:13:59.011Z,19.83
2017-09-21T02:16:26.483Z,19.43
2017-09-21T02:18:54.803Z,17.30
2017-09-21T02:21:23.050Z,17.57
2017-09-21T02:23:50.544Z,18.87
2017-09-21T02:26:18.011Z,20.03
2017-09-21T02:28:45.577Z,20.57
2017-09-21T02:31:13.035Z,20.57
2017-09-21T02:33:40.515Z,25.50
2017-09-21T02:36:07.984Z,27.77
2017-09-21T02:38:35.452Z,23.50
2017-09-21T02:41:02.945Z,23.23
2017-09-21T02:43:30.417Z,25.00
2017-09-21T02:45:57.887Z,24.60
2017-09-21T02:48:25.352Z,24.10
2017-09-21T02:50:52.836Z,21.23
2017-09-21T02:53:20.303Z,23.60
2017-09-21T02:55:48.543Z,25.43
2017-09-21T02:58:16.011Z,27.83
2017-09-21T03:00:43.471Z,23.23
2017-09-21T03:03:10.952Z,19.80
2017-09-21T03:05:39.179Z,21.57
2017-09-21T03:08:06.680Z,28.97
2017-09-21T03:10:34.153Z,23.07
2017-09-21T03:13:02.415Z,24.30
2017-09-21T03:15:30.639Z,19.00
2017-09-21T03:17:58.110Z,21.97
2017-09-21T03:20:25.638Z,23.03
2017-09-21T03:22:53.092Z,23.50
2017-09-21T03:25:20.574Z,21.33
2017-09-21T03:27:48.040Z,20.30
2017-09-21T03:30:15.519Z,19.40
2017-09-21T03:32:43.747Z,17.03
2017-09-21T03:35:11.211Z,21.60
2017-09-21T03:37:38.699Z,30.83
2017-09-21T03:40:06.216Z,21.57
2017-09-21T03:42:33.721Z,18.27
2017-09-21T03:45:01.184Z,23.80
2017-09-21T03:47:29.421Z,20.10
2017-09-21T03:49:56.904Z,21.50
2017-09-21T03:52:24.366Z,19.63
2017-09-21T03:54:51.846Z,20.13
2017-09-21T03:57:20.084Z,24.30
2017-09-21T03:59:47.566Z,22.87
2017-09-21T04:02:15.795Z,16.73
2017-09-21T04:04:43.264Z,18.47
2017-09-21T04:07:10.750Z,25.80
2017-09-21T04:09:38.984Z,22.93
2017-09-21T04:12:06.464Z,18.80
2017-09-21T04:14:33.948Z,26.27
2017-09-21T04:17:01.434Z,19.13
2017-09-21T04:19:28.919Z,23.63
2017-09-21T04:21:56.605Z,17.37
2017-09-21T04:24:24.867Z,18.70
2017-09-21T04:26:52.334Z,19.63
2017-09-21T04:29:20.566Z,19.30
2017-09-21T04:31:48.047Z,17.03
2017-09-21T04:34:15.527Z,26.90
2017-09-21T04:36:43.774Z,18.33
2017-09-21T04:39:11.239Z,20.47
2017-09-21T04:41:38.728Z,19.87
2017-09-21T04:44:06.960Z,16.23
2017-09-21T04:46:34.446Z,15.80
2017-09-21T04:49:02.711Z,24.50
2017-09-21T04:51:30.188Z,20.80
2017-09-21T04:53:58.427Z,16.70
2017-09-21T04:56:26.000Z,21.70
2017-09-21T04:58:54.081Z,16.00
2017-09-21T05:01:21.679Z,14.57
2017-09-21T05:03:49.328Z,18.20
2017-09-21T05:06:16.983Z,15.00
2017-09-21T05:08:45.262Z,20.37
2017-09-21T05:11:12.728Z,16.17
2017-09-21T05:13:40.213Z,19.30
2017-09-21T05:16:07.681Z,17.17
2017-09-21T05:18:35.151Z,18.00
2017-09-21T05:21:02.643Z,16.40
2017-09-21T05:23:30.111Z,20.60
2017-09-21T05:25:57.571Z,16.10
2017-09-21T05:28:25.055Z,22.20
2017-09-21T05:30:52.528Z,22.23
2017-09-21T05:33:20.020Z,15.47
2017-09-21T05:35:48.253Z,15.73
2017-09-21T05:38:15.711Z,20.03
2017-09-21T05:40:43.199Z,23.50
2017-09-21T05:43:11.442Z,17.37
2017-09-21T05:45:38.910Z,18.87
2017-09-21T05:48:06.399Z,20.07
2017-09-21T05:50:34.646Z,20.80
2017-09-21T05:53:02.107Z,18.43
2017-09-21T05:55:29.589Z,18.30
2017-09-21T05:57:57.815Z,17.53
2017-09-21T06:00:25.299Z,17.43
2017-09-21T06:02:53.560Z,12.53
2017-09-21T06:05:21.068Z,11.50
2017-09-21T06:07:48.542Z,17.40
2017-09-21T06:10:16.036Z,15.30
2017-09-21T06:12:43.507Z,16.07
2017-09-21T06:15:11.736Z,13.50
2017-09-21T06:17:39.228Z,10.50
2017-09-21T06:20:07.455Z,14.83
2017-09-21T06:22:34.951Z,11.13
2017-09-21T06:25:02.424Z,13.50
2017-09-21T06:27:30.664Z,15.43
2017-09-21T06:29:58.158Z,14.43
2017-09-21T06:32:25.640Z,15.83
2017-09-21T06:34:53.132Z,14.70
2017-09-21T06:37:20.611Z,14.63
2017-09-21T06:39:48.075Z,13.00
2017-09-21T06:42:15.559Z,16.07
2017-09-21T06:44:43.791Z,16.77
2017-09-21T06:47:11.252Z,16.23
2017-09-21T06:49:38.724Z,15.60
2017-09-21T06:52:06.208Z,12.00
2017-09-21T06:54:33.699Z,18.10
2017-09-21T06:57:01.188Z,16.07
2017-09-21T06:59:28.656Z,15.43
2017-09-21T07:01:56.904Z,13.03
2017-09-21T07:04:24.379Z,12.57
2017-09-21T07:06:51.840Z,17.30
2017-09-21T07:09:19.332Z,14.50
2017-09-21T07:11:46.810Z,13.43
2017-09-21T07:14:14.295Z,14.43
2017-09-21T07:16:41.775Z,11.53
2017-09-21T07:19:10.008Z,16.47
2017-09-21T07:21:37.499Z,12.13
2017-09-21T07:24:05.101Z,15.27
2017-09-21T07:26:32.557Z,14.53
2017-09-21T07:29:00.031Z,15.60
2017-09-21T07:31:27.511Z,16.13
2017-09-21T07:33:55.004Z,11.83
2017-09-21T07:36:23.235Z,16.77
2017-09-21T07:38:50.714Z,13.30
2017-09-21T07:41:18.175Z,14.87
2017-09-21T07:43:46.411Z,15.67
2017-09-21T07:46:13.890Z,11.73
2017-09-21T07:48:42.123Z,14.13
2017-09-21T07:51:09.604Z,14.93
2017-09-21T07:53:37.079Z,12.47
2017-09-21T07:56:04.543Z,11.90
2017-09-21T07:58:32.026Z,12.03
2017-09-21T08:01:00.256Z,15.90
2017-09-21T08:03:27.734Z,15.57
2017-09-21T08:05:55.195Z,12.60
2017-09-21T08:08:22.679Z,11.37
2017-09-21T08:10:50.159Z,11.97
2017-09-21T08:13:17.635Z,15.23
2017-09-21T08:15:45.107Z,12.10
2017-09-21T08:18:12.619Z,12.40
2017-09-21T08:20:40.099Z,14.63
2017-09-21T08:23:07.560Z,16.03
2017-09-21T08:25:35.036Z,16.50
2017-09-21T08:28:02.524Z,12.03
2017-09-21T08:30:29.991Z,12.13
2017-09-21T08:32:57.483Z,14.60
2017-09-21T08:35:24.943Z,17.53
2017-09-21T08:37:52.421Z,10.23
2017-09-21T08:40:19.888Z,11.00
2017-09-21T08:42:48.136Z,12.67
2017-09-21T08:45:15.627Z,11.80
2017-09-21T08:47:43.867Z,12.10
2017-09-21T08:50:11.344Z,12.80
2017-09-21T08:52:38.809Z,10.10
2017-09-21T08:55:07.050Z,10.90
2017-09-21T08:57:34.525Z,15.80
2017-09-21T09:00:02.057Z,11.40
2017-09-21T09:02:29.528Z,10.40
2017-09-21T09:04:56.982Z,12.33
2017-09-21T09:07:24.456Z,12.80
2017-09-21T09:09:51.916Z,11.97
2017-09-21T09:12:19.396Z,10.57
2017-09-21T09:14:47.626Z,10.33
2017-09-21T09:17:15.098Z,10.60
2017-09-21T09:19:42.575Z,10.67
2017-09-21T09:22:10.819Z,10.77
2017-09-21T09:24:38.294Z,13.33
2017-09-21T09:27:06.522Z,17.10
2017-09-21T09:29:33.999Z,18.37
2017-09-21T09:32:01.483Z,13.63
2017-09-21T09:34:28.963Z,11.20
2017-09-21T09:36:56.455Z,10.27
2017-09-21T09:39:23.911Z,9.47
2017-09-21T09:41:51.403Z,10.63
2017-09-21T09:44:18.875Z,10.07
2017-09-21T09:46:47.119Z,14.60
2017-09-21T09:49:14.586Z,8.77
2017-09-21T09:51:42.068Z,9.47
2017-09-21T09:54:10.295Z,7.67
2017-09-21T09:56:37.760Z,9.40
2017-09-21T09:59:05.286Z,7.00
2017-09-21T10:01:32.751Z,13.97
2017-09-21T10:04:00.241Z,9.97
2017-09-21T10:06:28.473Z,9.37
2017-09-21T10:08:55.951Z,9.50
2017-09-21T10:11:23.418Z,7.20
2017-09-21T10:13:50.880Z,8.53
2017-09-21T10:16:18.350Z,5.50
2017-09-21T10:18:45.814Z,6.93
2017-09-21T10:21:14.057Z,8.33
2017-09-21T10:23:41.525Z,8.23
2017-09-21T10:26:09.775Z,5.57
2017-09-21T10:28:37.847Z,5.47
2017-09-21T10:31:05.306Z,9.30
2017-09-21T10:33:32.786Z,7.20
2017-09-21T10:36:00.243Z,4.37
2017-09-21T10:38:29.233Z,6.70
2017-09-21T10:40:56.683Z,6.00
2017-09-21T10:43:24.144Z,6.00
2017-09-21T10:45:51.629Z,4.63
2017-09-21T10:48:19.857Z,5.90
2017-09-21T10:50:47.319Z,5.27
2017-09-21T10:53:14.785Z,6.73
2017-09-21T10:55:42.276Z,6.90
2017-09-21T10:58:10.515Z,6.50
2017-09-21T11:00:37.967Z,9.23
2017-09-21T11:03:05.445Z,3.67
2017-09-21T11:05:33.683Z,4.70
2017-09-21T11:08:01.150Z,4.20
2017-09-21T11:10:28.634Z,4.23
2017-09-21T11:12:56.103Z,4.40
2017-09-21T11:15:24.344Z,3.43
2017-09-21T11:17:51.810Z,3.83
2017-09-21T11:20:19.272Z,5.43
2017-09-21T11:22:46.751Z,10.33
2017-09-21T11:25:15.026Z,6.07
2017-09-21T11:27:43.252Z,4.53
2017-09-21T11:30:10.727Z,3.70
2017-09-21T11:32:38.191Z,7.10
2017-09-21T11:35:05.647Z,13.60
2017-09-21T11:37:33.119Z,5.80
2017-09-21T11:40:01.340Z,3.93
2017-09-21T11:42:28.814Z,8.40
2017-09-21T11:44:56.279Z,11.00
2017-09-21T11:47:23.750Z,8.27
2017-09-21T11:49:52.735Z,6.97
2017-09-21T11:52:20.964Z,6.40
2017-09-21T11:54:48.449Z,5.93
2017-09-21T11:57:15.903Z,4.50
2017-09-21T11:59:43.383Z,6.20
2017-09-21T12:02:10.867Z,5.10
2017-09-21T12:04:39.097Z,6.37
2017-09-21T12:07:06.550Z,7.17
2017-09-21T12:09:34.035Z,7.10
2017-09-21T12:12:01.499Z,6.43
2017-09-21T12:14:29.744Z,5.13
2017-09-21T12:16:57.222Z,5.77
2017-09-21T12:19:24.700Z,9.23
2017-09-21T12:21:52.931Z,6.40
2017-09-21T12:24:20.403Z,9.13
2017-09-21T12:26:47.871Z,11.60
2017-09-21T12:29:16.116Z,14.27
2017-09-21T12:31:43.594Z,8.00
2017-09-21T12:34:11.056Z,10.70
2017-09-21T12:36:38.532Z,12.80
2017-09-21T12:39:07.076Z,10.80
2017-09-21T12:41:34.555Z,7.90
2017-09-21T12:44:02.780Z,6.93
2017-09-21T12:46:30.267Z,9.83
2017-09-21T12:48:57.758Z,7.73
2017-09-21T12:51:25.988Z,7.60
2017-09-21T12:53:53.460Z,7.17
2017-09-21T12:56:20.936Z,5.60
2017-09-21T12:58:49.192Z,6.33
2017-09-21T13:01:16.654Z,8.57
2017-09-21T13:03:44.141Z,6.97
2017-09-21T13:06:11.616Z,6.20
2017-09-21T13:08:39.080Z,8.70
2017-09-21T13:11:06.560Z,4.47
2017-09-21T13:13:34.040Z,8.20
2017-09-21T13:16:01.518Z,6.60
2017-09-21T13:18:29.747Z,9.90
2017-09-21T13:20:57.212Z,8.63
2017-09-21T13:23:24.720Z,12.20
2017-09-21T13:25:52.175Z,9.83
2017-09-21T13:28:19.697Z,12.50
2017-09-21T13:30:47.171Z,7.40
2017-09-21T13:33:15.416Z,10.53
2017-09-21T13:35:42.876Z,7.30
2017-09-21T13:38:10.343Z,6.97
2017-09-21T13:40:37.823Z,5.70
2017-09-21T13:43:06.067Z,11.40
2017-09-21T13:45:33.538Z,6.40
2017-09-21T13:48:01.779Z,9.23
2017-09-21T13:50:29.255Z,8.73
2017-09-21T13:52:56.739Z,10.93
2017-09-21T13:55:24.989Z,7.80
2017-09-21T13:57:52.459Z,9.70
2017-09-21T14:00:20.687Z,6.07
2017-09-21T14:02:48.170Z,7.03
2017-09-21T14:05:15.626Z,6.73
2017-09-21T14:07:43.955Z,6.70
2017-09-21T14:10:11.451Z,7.00
2017-09-21T14:12:38.924Z,9.20
2017-09-21T14:15:06.396Z,4.83
2017-09-21T14:17:34.623Z,5.17
2017-09-21T14:20:02.100Z,5.60
2017-09-21T14:22:29.560Z,7.00
2017-09-21T14:24:57.023Z,7.23
2017-09-21T14:27:24.499Z,7.13
2017-09-21T14:29:53.191Z,8.53
2017-09-21T14:32:21.424Z,7.80
2017-09-21T14:34:48.960Z,7.13
2017-09-21T14:37:16.676Z,6.97
2017-09-21T14:39:44.259Z,8.53
2017-09-21T14:42:11.735Z,10.30
2017-09-21T14:44:39.236Z,10.87
2017-09-21T14:47:06.763Z,8.30
2017-09-21T14:49:34.303Z,7.63
2017-09-21T14:52:01.801Z,7.77
2017-09-21T14:54:29.283Z,8.60
2017-09-21T14:56:57.541Z,8.70
2017-09-21T14:59:25.024Z,6.93
2017-09-21T15:01:53.408Z,6.07
2017-09-21T15:04:21.074Z,7.73
2017-09-21T15:06:48.552Z,8.60
2017-09-21T15:09:16.066Z,10.83
2017-09-21T15:11:43.523Z,5.47
2017-09-21T15:14:11.811Z,7.77
2017-09-21T15:16:40.068Z,4.63
2017-09-21T15:19:08.293Z,8.97
2017-09-21T15:21:35.802Z,5.20
2017-09-21T15:24:04.114Z,7.23
2017-09-21T15:26:31.609Z,10.50
2017-09-21T15:28:59.134Z,4.00
2017-09-21T15:31:26.775Z,6.00
2017-09-21T15:33:55.759Z,4.27
2017-09-21T15:36:23.396Z,5.00
2017-09-21T15:38:51.155Z,5.33
2017-09-21T15:41:19.484Z,7.13
2017-09-21T15:43:47.079Z,5.27
2017-09-21T15:46:15.371Z,6.90
2017-09-21T15:48:42.815Z,5.10
2017-09-21T15:51:10.324Z,11.07
2017-09-21T15:53:37.787Z,5.90
2017-09-21T15:56:05.270Z,8.20
2017-09-21T15:58:32.730Z,6.70
2017-09-21T16:01:00.188Z,4.47
2017-09-21T16:03:27.684Z,2.87
2017-09-21T16:05:55.974Z,4.00
2017-09-21T16:08:23.447Z,4.43
2017-09-21T16:10:50.919Z,4.10
2017-09-21T16:13:18.397Z,4.97
2017-09-21T16:15:46.133Z,3.40
2017-09-21T16:18:13.729Z,4.93
2017-09-21T16:20:41.287Z,4.30
2017-09-21T16:23:08.981Z,4.80
2017-09-21T16:25:37.480Z,9.73
2017-09-21T16:28:04.967Z,4.73
2017-09-21T16:30:32.544Z,2.83
2017-09-21T16:33:00.033Z,4.40
2017-09-21T16:35:28.283Z,4.27
2017-09-21T16:37:56.595Z,6.10
2017-09-21T16:40:24.077Z,5.67
2017-09-21T16:42:51.694Z,3.60
2017-09-21T16:45:20.005Z,4.20
2017-09-21T16:47:47.558Z,7.60
2017-09-21T16:50:15.029Z,4.17
2017-09-21T16:52:42.507Z,7.33
2017-09-21T16:55:09.988Z,13.20
2017-09-21T16:57:38.264Z,4.40
2017-09-21T17:00:06.618Z,4.00
2017-09-21T17:02:34.103Z,3.80
2017-09-21T17:05:02.350Z,13.03
2017-09-21T17:07:29.824Z,5.40
2017-09-21T17:09:57.335Z,7.10
2017-09-21T17:12:24.796Z,6.27
2017-09-21T17:14:52.296Z,4.50
2017-09-21T17:17:19.784Z,6.90
2017-09-21T17:19:47.314Z,5.13
2017-09-21T17:22:14.840Z,7.57
2017-09-21T17:24:42.378Z,6.63
2017-09-21T17:27:10.000Z,13.37
2017-09-21T17:29:38.259Z,6.33
2017-09-21T17:32:05.731Z,6.93
2017-09-21T17:34:34.254Z,10.73
2017-09-21T17:37:02.488Z,7.00
2017-09-21T17:39:30.721Z,5.30
2017-09-21T17:41:58.222Z,6.33
2017-09-21T17:44:26.436Z,6.70
2017-09-21T17:46:53.923Z,8.43
2017-09-21T17:49:21.393Z,6.13
2017-09-21T17:51:48.985Z,8.50
2017-09-21T17:54:16.516Z,6.37
2017-09-21T17:56:44.791Z,6.60
2017-09-21T17:59:13.116Z,7.73
2017-09-21T18:01:40.571Z,9.27
2017-09-21T18:04:08.193Z,10.00
2017-09-21T18:06:35.668Z,10.03
2017-09-21T18:09:03.233Z,6.03
2017-09-21T18:11:30.721Z,8.43
2017-09-21T18:13:58.211Z,10.77
2017-09-21T18:16:25.798Z,6.57
2017-09-21T18:18:53.264Z,8.10
2017-09-21T18:21:20.790Z,10.23
2017-09-21T18:23:51.235Z,11.37
2017-09-21T18:26:18.968Z,9.13
2017-09-21T18:28:47.219Z,7.90
2017-09-21T18:31:14.755Z,5.20
2017-09-21T18:33:42.275Z,10.30
2017-09-21T18:36:11.050Z,7.00
2017-09-21T18:38:39.372Z,5.67
2017-09-21T18:41:06.856Z,11.30
2017-09-21T18:43:34.547Z,8.03
2017-09-21T18:46:02.899Z,6.27
2017-09-21T18:48:30.362Z,8.87
2017-09-21T18:50:57.851Z,9.23
2017-09-21T18:53:26.151Z,5.57
2017-09-21T18:55:53.783Z,11.17
2017-09-21T18:58:21.255Z,6.80
2017-09-21T19:00:48.784Z,6.23
2017-09-21T19:03:16.345Z,6.40
2017-09-21T19:05:44.604Z,6.97
2017-09-21T19:08:12.068Z,5.47
2017-09-21T19:10:40.380Z,8.43
2017-09-21T19:13:07.925Z,5.00
2017-09-21T19:15:36.233Z,6.80
2017-09-21T19:18:04.006Z,9.50
2017-09-21T19:20:31.851Z,8.77
2017-09-21T19:22:59.448Z,9.60
2017-09-21T19:25:27.758Z,8.23
2017-09-21T19:27:56.064Z,7.93
2017-09-21T19:30:23.811Z,9.23
2017-09-21T19:32:51.437Z,7.90
2017-09-21T19:35:20.553Z,9.33
2017-09-21T19:37:48.886Z,6.27
2017-09-21T19:40:16.496Z,8.27
2017-09-21T19:42:44.765Z,9.27
2017-09-21T19:45:12.546Z,10.20
2017-09-21T19:47:40.181Z,6.40
2017-09-21T19:50:07.808Z,6.20
2017-09-21T19:52:35.395Z,8.27
2017-09-21T19:55:03.708Z,13.00
2017-09-21T19:57:31.236Z,9.20
2017-09-21T19:59:59.556Z,11.53
2017-09-21T20:02:27.024Z,8.40
2017-09-21T20:04:54.559Z,8.90
2017-09-21T20:07:22.049Z,10.63
2017-09-21T20:09:50.392Z,9.80
2017-09-21T20:12:17.891Z,7.57
2017-09-21T20:14:45.363Z,12.07
2017-09-21T20:17:12.831Z,12.77
2017-09-21T20:19:40.385Z,8.37
2017-09-21T20:22:08.636Z,6.40
2017-09-21T20:24:36.173Z,8.87
2017-09-21T20:27:03.754Z,9.07
2017-09-21T20:29:31.243Z,8.23
2017-09-21T20:31:59.494Z,11.47
2017-09-21T20:34:26.953Z,9.20
2017-09-21T20:36:54.422Z,9.03
2017-09-21T20:39:21.916Z,9.17
2017-09-21T20:41:49.415Z,8.20
2017-09-21T20:44:16.890Z,6.60
2017-09-21T20:46:44.362Z,8.20
2017-09-21T20:49:12.589Z,7.57
2017-09-21T20:51:40.058Z,7.90
2017-09-21T20:54:07.520Z,11.20
2017-09-21T20:56:34.991Z,8.03
2017-09-21T20:59:02.495Z,11.83
2017-09-21T21:01:29.955Z,9.40
2017-09-21T21:03:57.415Z,9.27
2017-09-21T21:06:24.892Z,9.13
2017-09-21T21:08:52.383Z,11.73
2017-09-21T21:11:20.631Z,8.57
2017-09-21T21:13:48.105Z,10.70
2017-09-21T21:16:15.575Z,10.90
2017-09-21T21:18:43.832Z,12.23
2017-09-21T21:21:11.290Z,9.73
2017-09-21T21:23:38.775Z,9.30
2017-09-21T21:26:07.015Z,9.23
2017-09-21T21:28:34.495Z,8.80
2017-09-21T21:31:02.736Z,16.10
2017-09-21T21:33:30.219Z,10.27
2017-09-21T21:35:58.479Z,10.60
2017-09-21T21:38:27.479Z,10.30
2017-09-21T21:40:54.952Z,10.97
2017-09-21T21:43:23.194Z,11.53
2017-09-21T21:45:50.676Z,11.73
2017-09-21T21:48:18.907Z,10.50
2017-09-21T21:50:46.382Z,10.67
2017-09-21T21:53:13.844Z,9.80
2017-09-21T21:55:42.088Z,12.50
2017-09-21T21:58:09.584Z,12.83
2017-09-21T22:00:37.044Z,10.50
2017-09-21T22:03:04.529Z,14.60
2017-09-21T22:05:31.994Z,13.87
2017-09-21T22:07:59.471Z,15.00
2017-09-21T22:10:26.946Z,11.53
2017-09-21T22:12:54.424Z,12.63
2017-09-21T22:15:22.674Z,12.10
2017-09-21T22:17:50.147Z,13.00
2017-09-21T22:20:17.620Z,10.77
2017-09-21T22:22:45.855Z,16.40
2017-09-21T22:25:13.339Z,16.73
2017-09-21T22:27:40.800Z,14.53
2017-09-21T22:30:08.267Z,14.60
2017-09-21T22:32:36.516Z,13.20
2017-09-21T22:35:03.968Z,15.23
2017-09-21T22:37:31.478Z,16.50
2017-09-21T22:39:59.751Z,14.63
2017-09-21T22:42:27.267Z,16.67
2017-09-21T22:44:54.739Z,17.47
2017-09-21T22:47:22.987Z,12.30
2017-09-21T22:49:50.467Z,15.10
2017-09-21T22:52:17.930Z,12.40
2017-09-21T22:54:46.191Z,14.53
2017-09-21T22:57:13.679Z,17.20
2017-09-21T22:59:41.147Z,14.37
2017-09-21T23:02:08.626Z,13.10
2017-09-21T23:04:36.116Z,16.23
2017-09-21T23:07:03.595Z,14.27
2017-09-21T23:09:31.822Z,17.30
2017-09-21T23:11:59.285Z,16.97
2017-09-21T23:14:26.770Z,16.60
2017-09-21T23:16:54.239Z,17.13
2017-09-21T23:19:22.495Z,15.67
2017-09-21T23:21:50.726Z,15.60
2017-09-21T23:24:18.207Z,17.10
2017-09-21T23:26:45.690Z,13.67
2017-09-21T23:29:13.163Z,15.43
2017-09-21T23:31:41.403Z,17.80
2017-09-21T23:34:08.867Z,17.00
2017-09-21T23:36:37.839Z,17.90
2017-09-21T23:39:05.321Z,15.70
2017-09-21T23:41:32.788Z,16.03
2017-09-21T23:44:01.036Z,16.43
2017-09-21T23:46:28.510Z,18.27
2017-09-21T23:48:56.735Z,18.00
2017-09-21T23:51:24.219Z,16.23
2017-09-21T23:53:51.695Z,16.30
2017-09-21T23:56:19.928Z,18.93
2017-09-21T23:58:47.411Z,22.67
